sensor_id;sensor_type;location;lat;lon;timestamp;P1;durP1;ratioP1;P2;durP2;ratioP2
15799;SDS011;8002;51.196;7.010;2024-03-08T00:00:55;12.73;;;11.10;;
15799;SDS011;8002;51.196;7.010;2024-03-08T00:03:22;14.57;;;13.00;;
15799;SDS011;8002;51.196;7.010;2024-03-08T00:05:50;13.97;;;11.87;;
15799;SDS011;8002;51.196;7.010;2024-03-08T00:08:16;13.40;;;11.30;;
15799;SDS011;8002;51.196;7.010;2024-03-08T00:10:43;15.17;;;11.30;;
15799;SDS011;8002;51.196;7.010;2024-03-08T00:13:09;15.27;;;12.03;;
15799;SDS011;8002;51.196;7.010;2024-03-08T00:15:36;14.80;;;11.97;;
15799;SDS011;8002;51.196;7.010;2024-03-08T00:18:03;14.90;;;11.87;;
15799;SDS011;8002;51.196;7.010;2024-03-08T00:20:29;13.07;;;11.70;;
15799;SDS011;8002;51.196;7.010;2024-03-08T00:22:57;15.43;;;12.60;;
15799;SDS011;8002;51.196;7.010;2024-03-08T00:25:24;13.77;;;11.90;;
15799;SDS011;8002;51.196;7.010;2024-03-08T00:27:50;13.90;;;11.20;;
15799;SDS011;8002;51.196;7.010;2024-03-08T00:30:20;14.83;;;11.73;;
15799;SDS011;8002;51.196;7.010;2024-03-08T00:32:48;15.83;;;12.90;;
15799;SDS011;8002;51.196;7.010;2024-03-08T00:35:14;15.63;;;13.10;;
15799;SDS011;8002;51.196;7.010;2024-03-08T00:37:40;16.80;;;11.77;;
15799;SDS011;8002;51.196;7.010;2024-03-08T00:40:09;14.43;;;11.70;;
15799;SDS011;8002;51.196;7.010;2024-03-08T00:42:36;14.97;;;11.43;;
15799;SDS011;8002;51.196;7.010;2024-03-08T00:45:03;13.37;;;11.70;;
15799;SDS011;8002;51.196;7.010;2024-03-08T00:47:30;14.07;;;11.53;;
15799;SDS011;8002;51.196;7.010;2024-03-08T00:49:56;13.40;;;11.20;;
15799;SDS011;8002;51.196;7.010;2024-03-08T00:52:23;16.37;;;11.87;;
15799;SDS011;8002;51.196;7.010;2024-03-08T00:54:50;16.00;;;11.27;;
15799;SDS011;8002;51.196;7.010;2024-03-08T00:57:17;13.03;;;11.43;;
15799;SDS011;8002;51.196;7.010;2024-03-08T00:59:44;14.23;;;11.90;;
15799;SDS011;8002;51.196;7.010;2024-03-08T01:02:10;14.47;;;11.53;;
15799;SDS011;8002;51.196;7.010;2024-03-08T01:04:37;16.47;;;13.73;;
15799;SDS011;8002;51.196;7.010;2024-03-08T01:07:04;14.70;;;11.37;;
15799;SDS011;8002;51.196;7.010;2024-03-08T01:09:30;16.87;;;12.50;;
15799;SDS011;8002;51.196;7.010;2024-03-08T01:11:57;16.47;;;13.23;;
15799;SDS011;8002;51.196;7.010;2024-03-08T01:14:25;16.80;;;12.40;;
15799;SDS011;8002;51.196;7.010;2024-03-08T01:16:51;15.90;;;12.73;;
15799;SDS011;8002;51.196;7.010;2024-03-08T01:19:18;14.80;;;12.83;;
15799;SDS011;8002;51.196;7.010;2024-03-08T01:21:44;15.97;;;13.00;;
15799;SDS011;8002;51.196;7.010;2024-03-08T01:24:11;16.10;;;12.27;;
15799;SDS011;8002;51.196;7.010;2024-03-08T01:26:37;17.50;;;13.83;;
15799;SDS011;8002;51.196;7.010;2024-03-08T01:29:04;16.67;;;12.83;;
15799;SDS011;8002;51.196;7.010;2024-03-08T01:31:32;16.83;;;13.07;;
15799;SDS011;8002;51.196;7.010;2024-03-08T01:33:58;16.97;;;12.57;;
15799;SDS011;8002;51.196;7.010;2024-03-08T01:36:25;14.07;;;12.10;;
15799;SDS011;8002;51.196;7.010;2024-03-08T01:38:51;15.70;;;12.73;;
15799;SDS011;8002;51.196;7.010;2024-03-08T01:41:18;16.87;;;13.63;;
15799;SDS011;8002;51.196;7.010;2024-03-08T01:43:45;16.47;;;12.23;;
15799;SDS011;8002;51.196;7.010;2024-03-08T01:46:11;19.50;;;12.83;;
15799;SDS011;8002;51.196;7.010;2024-03-08T01:48:41;18.30;;;15.10;;
15799;SDS011;8002;51.196;7.010;2024-03-08T01:51:08;14.27;;;11.73;;
15799;SDS011;8002;51.196;7.010;2024-03-08T01:53:34;16.70;;;12.60;;
15799;SDS011;8002;51.196;7.010;2024-03-08T01:56:01;18.43;;;14.33;;
15799;SDS011;8002;51.196;7.010;2024-03-08T01:58:29;16.10;;;12.97;;
15799;SDS011;8002;51.196;7.010;2024-03-08T02:00:56;15.70;;;11.60;;
15799;SDS011;8002;51.196;7.010;2024-03-08T02:03:23;18.80;;;13.40;;
15799;SDS011;8002;51.196;7.010;2024-03-08T02:05:51;18.17;;;13.27;;
15799;SDS011;8002;51.196;7.010;2024-03-08T02:08:17;15.57;;;13.23;;
15799;SDS011;8002;51.196;7.010;2024-03-08T02:10:47;17.07;;;13.43;;
15799;SDS011;8002;51.196;7.010;2024-03-08T02:13:14;16.70;;;13.13;;
15799;SDS011;8002;51.196;7.010;2024-03-08T02:15:50;17.80;;;13.40;;
15799;SDS011;8002;51.196;7.010;2024-03-08T02:18:17;14.57;;;12.50;;
15799;SDS011;8002;51.196;7.010;2024-03-08T02:20:45;15.40;;;13.30;;
15799;SDS011;8002;51.196;7.010;2024-03-08T02:23:12;14.30;;;12.03;;
15799;SDS011;8002;51.196;7.010;2024-03-08T02:25:38;18.57;;;13.70;;
15799;SDS011;8002;51.196;7.010;2024-03-08T02:28:05;13.80;;;12.27;;
15799;SDS011;8002;51.196;7.010;2024-03-08T02:30:34;17.40;;;12.70;;
15799;SDS011;8002;51.196;7.010;2024-03-08T02:33:00;17.67;;;13.53;;
15799;SDS011;8002;51.196;7.010;2024-03-08T02:35:27;18.40;;;12.93;;
15799;SDS011;8002;51.196;7.010;2024-03-08T02:37:55;16.33;;;13.33;;
15799;SDS011;8002;51.196;7.010;2024-03-08T02:40:21;16.87;;;13.63;;
15799;SDS011;8002;51.196;7.010;2024-03-08T02:42:48;19.57;;;13.30;;
15799;SDS011;8002;51.196;7.010;2024-03-08T02:45:14;14.67;;;12.37;;
15799;SDS011;8002;51.196;7.010;2024-03-08T02:47:40;19.47;;;13.70;;
15799;SDS011;8002;51.196;7.010;2024-03-08T02:50:07;18.53;;;13.17;;
15799;SDS011;8002;51.196;7.010;2024-03-08T02:52:34;17.30;;;13.80;;
15799;SDS011;8002;51.196;7.010;2024-03-08T02:55:01;15.17;;;13.07;;
15799;SDS011;8002;51.196;7.010;2024-03-08T02:57:28;17.77;;;12.60;;
15799;SDS011;8002;51.196;7.010;2024-03-08T02:59:54;15.73;;;12.47;;
15799;SDS011;8002;51.196;7.010;2024-03-08T03:02:20;15.40;;;11.83;;
15799;SDS011;8002;51.196;7.010;2024-03-08T03:04:48;19.03;;;13.37;;
15799;SDS011;8002;51.196;7.010;2024-03-08T03:07:14;17.37;;;13.27;;
15799;SDS011;8002;51.196;7.010;2024-03-08T03:09:41;14.33;;;12.50;;
15799;SDS011;8002;51.196;7.010;2024-03-08T03:12:09;17.47;;;13.40;;
15799;SDS011;8002;51.196;7.010;2024-03-08T03:14:35;17.53;;;13.73;;
15799;SDS011;8002;51.196;7.010;2024-03-08T03:17:03;18.30;;;13.10;;
15799;SDS011;8002;51.196;7.010;2024-03-08T03:19:29;16.87;;;14.00;;
15799;SDS011;8002;51.196;7.010;2024-03-08T03:21:56;16.97;;;12.70;;
15799;SDS011;8002;51.196;7.010;2024-03-08T03:24:22;16.57;;;14.00;;
15799;SDS011;8002;51.196;7.010;2024-03-08T03:26:48;15.77;;;13.33;;
15799;SDS011;8002;51.196;7.010;2024-03-08T03:29:16;16.07;;;13.03;;
15799;SDS011;8002;51.196;7.010;2024-03-08T03:31:43;15.97;;;12.67;;
15799;SDS011;8002;51.196;7.010;2024-03-08T03:34:10;18.30;;;13.70;;
15799;SDS011;8002;51.196;7.010;2024-03-08T03:36:37;18.07;;;13.67;;
15799;SDS011;8002;51.196;7.010;2024-03-08T03:39:07;16.87;;;13.20;;
15799;SDS011;8002;51.196;7.010;2024-03-08T03:41:37;16.93;;;12.63;;
15799;SDS011;8002;51.196;7.010;2024-03-08T03:44:03;15.57;;;12.30;;
15799;SDS011;8002;51.196;7.010;2024-03-08T03:46:31;17.17;;;14.23;;
15799;SDS011;8002;51.196;7.010;2024-03-08T03:48:58;18.03;;;14.23;;
15799;SDS011;8002;51.196;7.010;2024-03-08T03:51:24;17.47;;;14.30;;
15799;SDS011;8002;51.196;7.010;2024-03-08T03:53:51;17.43;;;13.90;;
15799;SDS011;8002;51.196;7.010;2024-03-08T03:56:18;18.00;;;13.37;;
15799;SDS011;8002;51.196;7.010;2024-03-08T03:58:44;17.77;;;13.03;;
15799;SDS011;8002;51.196;7.010;2024-03-08T04:01:10;18.10;;;13.57;;
15799;SDS011;8002;51.196;7.010;2024-03-08T04:03:38;16.77;;;12.20;;
15799;SDS011;8002;51.196;7.010;2024-03-08T04:06:08;15.03;;;11.17;;
15799;SDS011;8002;51.196;7.010;2024-03-08T04:08:34;16.97;;;13.63;;
15799;SDS011;8002;51.196;7.010;2024-03-08T04:11:00;16.83;;;12.67;;
15799;SDS011;8002;51.196;7.010;2024-03-08T04:13:27;18.73;;;12.93;;
15799;SDS011;8002;51.196;7.010;2024-03-08T04:15:54;17.07;;;13.70;;
15799;SDS011;8002;51.196;7.010;2024-03-08T04:18:20;16.53;;;12.93;;
15799;SDS011;8002;51.196;7.010;2024-03-08T04:20:48;18.63;;;13.33;;
15799;SDS011;8002;51.196;7.010;2024-03-08T04:23:15;17.37;;;13.40;;
15799;SDS011;8002;51.196;7.010;2024-03-08T04:25:42;18.67;;;13.33;;
15799;SDS011;8002;51.196;7.010;2024-03-08T04:28:09;18.07;;;12.67;;
15799;SDS011;8002;51.196;7.010;2024-03-08T04:30:36;16.27;;;13.20;;
15799;SDS011;8002;51.196;7.010;2024-03-08T04:33:03;17.13;;;13.13;;
15799;SDS011;8002;51.196;7.010;2024-03-08T04:35:29;16.40;;;13.23;;
15799;SDS011;8002;51.196;7.010;2024-03-08T04:37:57;15.03;;;12.83;;
15799;SDS011;8002;51.196;7.010;2024-03-08T04:40:24;17.70;;;13.43;;
15799;SDS011;8002;51.196;7.010;2024-03-08T04:42:50;17.20;;;13.10;;
15799;SDS011;8002;51.196;7.010;2024-03-08T04:45:17;16.73;;;13.23;;
15799;SDS011;8002;51.196;7.010;2024-03-08T04:47:44;16.43;;;12.13;;
15799;SDS011;8002;51.196;7.010;2024-03-08T04:50:10;16.77;;;13.20;;
15799;SDS011;8002;51.196;7.010;2024-03-08T04:52:36;19.10;;;14.13;;
15799;SDS011;8002;51.196;7.010;2024-03-08T04:55:05;17.23;;;12.53;;
15799;SDS011;8002;51.196;7.010;2024-03-08T04:57:32;16.83;;;12.67;;
15799;SDS011;8002;51.196;7.010;2024-03-08T04:59:58;18.33;;;13.27;;
15799;SDS011;8002;51.196;7.010;2024-03-08T05:02:25;17.40;;;13.33;;
15799;SDS011;8002;51.196;7.010;2024-03-08T05:04:51;16.83;;;13.17;;
15799;SDS011;8002;51.196;7.010;2024-03-08T05:07:18;17.90;;;12.63;;
15799;SDS011;8002;51.196;7.010;2024-03-08T05:09:45;17.10;;;13.27;;
15799;SDS011;8002;51.196;7.010;2024-03-08T05:12:17;19.60;;;14.23;;
15799;SDS011;8002;51.196;7.010;2024-03-08T05:14:44;15.80;;;12.20;;
15799;SDS011;8002;51.196;7.010;2024-03-08T05:17:11;17.63;;;13.70;;
15799;SDS011;8002;51.196;7.010;2024-03-08T05:19:38;16.83;;;13.13;;
15799;SDS011;8002;51.196;7.010;2024-03-08T05:22:04;18.53;;;13.03;;
15799;SDS011;8002;51.196;7.010;2024-03-08T05:24:30;17.50;;;13.20;;
15799;SDS011;8002;51.196;7.010;2024-03-08T05:26:56;18.30;;;13.40;;
15799;SDS011;8002;51.196;7.010;2024-03-08T05:29:25;17.33;;;12.83;;
15799;SDS011;8002;51.196;7.010;2024-03-08T05:31:52;16.00;;;12.57;;
15799;SDS011;8002;51.196;7.010;2024-03-08T05:34:18;19.37;;;14.27;;
15799;SDS011;8002;51.196;7.010;2024-03-08T05:36:46;17.00;;;13.17;;
15799;SDS011;8002;51.196;7.010;2024-03-08T05:39:14;16.77;;;12.90;;
15799;SDS011;8002;51.196;7.010;2024-03-08T05:41:41;16.60;;;12.80;;
15799;SDS011;8002;51.196;7.010;2024-03-08T05:44:07;19.80;;;14.03;;
15799;SDS011;8002;51.196;7.010;2024-03-08T05:46:35;17.93;;;12.90;;
15799;SDS011;8002;51.196;7.010;2024-03-08T05:49:02;19.80;;;13.30;;
15799;SDS011;8002;51.196;7.010;2024-03-08T05:51:30;18.17;;;14.50;;
15799;SDS011;8002;51.196;7.010;2024-03-08T05:53:56;17.33;;;12.63;;
15799;SDS011;8002;51.196;7.010;2024-03-08T05:56:23;17.27;;;13.07;;
15799;SDS011;8002;51.196;7.010;2024-03-08T05:58:50;21.27;;;14.40;;
15799;SDS011;8002;51.196;7.010;2024-03-08T06:01:16;17.60;;;13.83;;
15799;SDS011;8002;51.196;7.010;2024-03-08T06:03:44;15.53;;;12.27;;
15799;SDS011;8002;51.196;7.010;2024-03-08T06:06:12;16.70;;;12.97;;
15799;SDS011;8002;51.196;7.010;2024-03-08T06:08:38;19.80;;;13.13;;
15799;SDS011;8002;51.196;7.010;2024-03-08T06:11:05;16.53;;;12.83;;
15799;SDS011;8002;51.196;7.010;2024-03-08T06:13:32;18.87;;;13.53;;
15799;SDS011;8002;51.196;7.010;2024-03-08T06:15:58;20.70;;;14.07;;
15799;SDS011;8002;51.196;7.010;2024-03-08T06:18:26;17.77;;;13.33;;
15799;SDS011;8002;51.196;7.010;2024-03-08T06:20:53;19.03;;;15.10;;
15799;SDS011;8002;51.196;7.010;2024-03-08T06:23:20;17.00;;;13.43;;
15799;SDS011;8002;51.196;7.010;2024-03-08T06:25:47;19.57;;;14.23;;
15799;SDS011;8002;51.196;7.010;2024-03-08T06:28:13;17.57;;;13.03;;
15799;SDS011;8002;51.196;7.010;2024-03-08T06:30:40;17.17;;;13.37;;
15799;SDS011;8002;51.196;7.010;2024-03-08T06:33:07;18.83;;;13.83;;
15799;SDS011;8002;51.196;7.010;2024-03-08T06:35:33;17.40;;;14.00;;
15799;SDS011;8002;51.196;7.010;2024-03-08T06:38:04;17.93;;;12.73;;
15799;SDS011;8002;51.196;7.010;2024-03-08T06:40:30;20.10;;;15.27;;
15799;SDS011;8002;51.196;7.010;2024-03-08T06:42:56;18.80;;;13.27;;
15799;SDS011;8002;51.196;7.010;2024-03-08T06:45:23;20.27;;;15.23;;
15799;SDS011;8002;51.196;7.010;2024-03-08T06:47:50;15.57;;;13.53;;
15799;SDS011;8002;51.196;7.010;2024-03-08T06:50:17;19.73;;;15.03;;
15799;SDS011;8002;51.196;7.010;2024-03-08T06:52:43;17.33;;;14.43;;
15799;SDS011;8002;51.196;7.010;2024-03-08T06:55:14;17.53;;;13.57;;
15799;SDS011;8002;51.196;7.010;2024-03-08T06:57:40;19.33;;;13.90;;
15799;SDS011;8002;51.196;7.010;2024-03-08T07:00:07;19.60;;;15.10;;
15799;SDS011;8002;51.196;7.010;2024-03-08T07:02:36;20.00;;;14.00;;
15799;SDS011;8002;51.196;7.010;2024-03-08T07:05:04;18.83;;;14.17;;
15799;SDS011;8002;51.196;7.010;2024-03-08T07:07:31;19.43;;;13.63;;
15799;SDS011;8002;51.196;7.010;2024-03-08T07:09:59;18.17;;;14.33;;
15799;SDS011;8002;51.196;7.010;2024-03-08T07:12:27;17.77;;;14.27;;
15799;SDS011;8002;51.196;7.010;2024-03-08T07:14:53;20.30;;;14.07;;
15799;SDS011;8002;51.196;7.010;2024-03-08T07:17:20;20.30;;;14.23;;
15799;SDS011;8002;51.196;7.010;2024-03-08T07:19:46;20.67;;;13.87;;
15799;SDS011;8002;51.196;7.010;2024-03-08T07:22:12;20.47;;;15.00;;
15799;SDS011;8002;51.196;7.010;2024-03-08T07:24:39;18.03;;;12.77;;
15799;SDS011;8002;51.196;7.010;2024-03-08T07:27:21;17.97;;;13.87;;
15799;SDS011;8002;51.196;7.010;2024-03-08T07:29:48;17.40;;;13.33;;
15799;SDS011;8002;51.196;7.010;2024-03-08T07:32:15;17.90;;;14.13;;
15799;SDS011;8002;51.196;7.010;2024-03-08T07:34:46;19.00;;;13.87;;
15799;SDS011;8002;51.196;7.010;2024-03-08T07:37:13;18.77;;;13.97;;
15799;SDS011;8002;51.196;7.010;2024-03-08T07:39:39;18.17;;;12.43;;
15799;SDS011;8002;51.196;7.010;2024-03-08T07:42:06;18.20;;;14.10;;
15799;SDS011;8002;51.196;7.010;2024-03-08T07:44:32;16.77;;;13.00;;
15799;SDS011;8002;51.196;7.010;2024-03-08T07:47:00;15.27;;;12.17;;
15799;SDS011;8002;51.196;7.010;2024-03-08T07:49:26;15.67;;;13.93;;
15799;SDS011;8002;51.196;7.010;2024-03-08T07:51:52;16.63;;;13.43;;
15799;SDS011;8002;51.196;7.010;2024-03-08T07:54:19;15.40;;;13.00;;
15799;SDS011;8002;51.196;7.010;2024-03-08T07:56:45;17.17;;;14.10;;
15799;SDS011;8002;51.196;7.010;2024-03-08T07:59:11;16.60;;;12.60;;
15799;SDS011;8002;51.196;7.010;2024-03-08T08:01:38;16.63;;;12.63;;
15799;SDS011;8002;51.196;7.010;2024-03-08T08:04:06;14.23;;;12.30;;
15799;SDS011;8002;51.196;7.010;2024-03-08T08:06:35;15.10;;;11.80;;
15799;SDS011;8002;51.196;7.010;2024-03-08T08:09:03;16.93;;;12.37;;
15799;SDS011;8002;51.196;7.010;2024-03-08T08:11:30;15.77;;;12.20;;
15799;SDS011;8002;51.196;7.010;2024-03-08T08:13:57;15.90;;;12.33;;
15799;SDS011;8002;51.196;7.010;2024-03-08T08:16:24;15.07;;;12.23;;
15799;SDS011;8002;51.196;7.010;2024-03-08T08:18:51;15.70;;;13.03;;
15799;SDS011;8002;51.196;7.010;2024-03-08T08:21:19;13.33;;;11.57;;
15799;SDS011;8002;51.196;7.010;2024-03-08T08:23:47;15.47;;;12.40;;
15799;SDS011;8002;51.196;7.010;2024-03-08T08:26:13;16.57;;;12.13;;
15799;SDS011;8002;51.196;7.010;2024-03-08T08:28:39;16.87;;;12.40;;
15799;SDS011;8002;51.196;7.010;2024-03-08T08:31:08;15.67;;;12.53;;
15799;SDS011;8002;51.196;7.010;2024-03-08T08:33:34;13.23;;;10.77;;
15799;SDS011;8002;51.196;7.010;2024-03-08T08:36:01;15.10;;;12.23;;
15799;SDS011;8002;51.196;7.010;2024-03-08T08:38:29;15.67;;;12.33;;
15799;SDS011;8002;51.196;7.010;2024-03-08T08:40:56;15.63;;;12.53;;
15799;SDS011;8002;51.196;7.010;2024-03-08T08:43:23;13.67;;;11.30;;
15799;SDS011;8002;51.196;7.010;2024-03-08T08:45:50;15.70;;;12.43;;
15799;SDS011;8002;51.196;7.010;2024-03-08T08:48:19;15.50;;;12.43;;
15799;SDS011;8002;51.196;7.010;2024-03-08T08:50:46;15.70;;;12.00;;
15799;SDS011;8002;51.196;7.010;2024-03-08T08:53:12;14.37;;;12.00;;
15799;SDS011;8002;51.196;7.010;2024-03-08T08:55:41;15.13;;;12.53;;
15799;SDS011;8002;51.196;7.010;2024-03-08T08:58:07;13.43;;;11.57;;
15799;SDS011;8002;51.196;7.010;2024-03-08T09:00:33;14.33;;;12.27;;
15799;SDS011;8002;51.196;7.010;2024-03-08T09:03:00;10.93;;;9.83;;
15799;SDS011;8002;51.196;7.010;2024-03-08T09:05:27;11.97;;;10.63;;
15799;SDS011;8002;51.196;7.010;2024-03-08T09:07:53;11.67;;;10.03;;
15799;SDS011;8002;51.196;7.010;2024-03-08T09:10:20;15.80;;;11.90;;
15799;SDS011;8002;51.196;7.010;2024-03-08T09:12:47;14.70;;;11.97;;
15799;SDS011;8002;51.196;7.010;2024-03-08T09:15:14;13.63;;;11.27;;
15799;SDS011;8002;51.196;7.010;2024-03-08T09:17:42;14.40;;;11.80;;
15799;SDS011;8002;51.196;7.010;2024-03-08T09:20:09;12.47;;;11.00;;
15799;SDS011;8002;51.196;7.010;2024-03-08T09:22:39;13.43;;;12.03;;
15799;SDS011;8002;51.196;7.010;2024-03-08T09:25:06;12.37;;;11.07;;
15799;SDS011;8002;51.196;7.010;2024-03-08T09:27:34;13.00;;;11.60;;
15799;SDS011;8002;51.196;7.010;2024-03-08T09:30:02;13.63;;;10.57;;
15799;SDS011;8002;51.196;7.010;2024-03-08T09:32:29;12.13;;;10.60;;
15799;SDS011;8002;51.196;7.010;2024-03-08T09:34:56;11.70;;;10.50;;
15799;SDS011;8002;51.196;7.010;2024-03-08T09:37:23;14.60;;;12.33;;
15799;SDS011;8002;51.196;7.010;2024-03-08T09:39:49;11.90;;;10.70;;
15799;SDS011;8002;51.196;7.010;2024-03-08T09:42:15;11.87;;;10.57;;
15799;SDS011;8002;51.196;7.010;2024-03-08T09:44:44;12.43;;;11.23;;
15799;SDS011;8002;51.196;7.010;2024-03-08T09:47:12;12.73;;;11.13;;
15799;SDS011;8002;51.196;7.010;2024-03-08T09:49:38;12.47;;;11.17;;
15799;SDS011;8002;51.196;7.010;2024-03-08T09:52:05;14.77;;;12.83;;
15799;SDS011;8002;51.196;7.010;2024-03-08T09:54:32;13.47;;;11.50;;
15799;SDS011;8002;51.196;7.010;2024-03-08T09:56:58;12.90;;;11.57;;
15799;SDS011;8002;51.196;7.010;2024-03-08T09:59:27;13.43;;;11.10;;
15799;SDS011;8002;51.196;7.010;2024-03-08T10:02:12;11.77;;;10.47;;
15799;SDS011;8002;51.196;7.010;2024-03-08T10:04:39;11.73;;;10.50;;
15799;SDS011;8002;51.196;7.010;2024-03-08T10:07:07;13.00;;;11.07;;
15799;SDS011;8002;51.196;7.010;2024-03-08T10:09:37;10.30;;;8.73;;
15799;SDS011;8002;51.196;7.010;2024-03-08T10:12:04;10.77;;;9.30;;
15799;SDS011;8002;51.196;7.010;2024-03-08T10:14:31;11.05;;;9.35;;
15799;SDS011;8002;51.196;7.010;2024-03-08T10:16:57;10.73;;;9.63;;
15799;SDS011;8002;51.196;7.010;2024-03-08T10:19:26;10.77;;;8.90;;
15799;SDS011;8002;51.196;7.010;2024-03-08T10:21:55;10.48;;;9.30;;
15799;SDS011;8002;51.196;7.010;2024-03-08T10:24:22;11.20;;;9.48;;
15799;SDS011;8002;51.196;7.010;2024-03-08T10:26:51;9.40;;;8.40;;
15799;SDS011;8002;51.196;7.010;2024-03-08T10:29:18;13.18;;;9.50;;
15799;SDS011;8002;51.196;7.010;2024-03-08T10:31:45;11.07;;;10.02;;
15799;SDS011;8002;51.196;7.010;2024-03-08T10:34:11;9.55;;;8.55;;
15799;SDS011;8002;51.196;7.010;2024-03-08T10:36:39;10.18;;;9.13;;
15799;SDS011;8002;51.196;7.010;2024-03-08T10:39:06;9.13;;;8.23;;
15799;SDS011;8002;51.196;7.010;2024-03-08T10:41:36;10.27;;;9.23;;
15799;SDS011;8002;51.196;7.010;2024-03-08T10:44:10;9.90;;;8.88;;
15799;SDS011;8002;51.196;7.010;2024-03-08T10:46:42;10.40;;;9.35;;
15799;SDS011;8002;51.196;7.010;2024-03-08T10:49:12;10.23;;;8.93;;
15799;SDS011;8002;51.196;7.010;2024-03-08T10:51:43;9.95;;;9.05;;
15799;SDS011;8002;51.196;7.010;2024-03-08T10:54:11;9.98;;;8.98;;
15799;SDS011;8002;51.196;7.010;2024-03-08T10:56:38;9.68;;;8.55;;
15799;SDS011;8002;51.196;7.010;2024-03-08T10:59:05;9.90;;;8.90;;
15799;SDS011;8002;51.196;7.010;2024-03-08T11:01:31;10.13;;;9.10;;
15799;SDS011;8002;51.196;7.010;2024-03-08T11:03:58;10.75;;;9.85;;
15799;SDS011;8002;51.196;7.010;2024-03-08T11:06:29;11.55;;;10.35;;
15799;SDS011;8002;51.196;7.010;2024-03-08T11:08:58;11.18;;;9.52;;
15799;SDS011;8002;51.196;7.010;2024-03-08T11:11:28;10.52;;;9.52;;
15799;SDS011;8002;51.196;7.010;2024-03-08T11:13:56;9.32;;;8.45;;
15799;SDS011;8002;51.196;7.010;2024-03-08T11:19:06;8.60;;;7.82;;
15799;SDS011;8002;51.196;7.010;2024-03-08T11:21:35;9.32;;;8.52;;
15799;SDS011;8002;51.196;7.010;2024-03-08T11:24:08;9.57;;;8.65;;
15799;SDS011;8002;51.196;7.010;2024-03-08T11:26:37;8.93;;;8.07;;
15799;SDS011;8002;51.196;7.010;2024-03-08T11:31:45;9.48;;;8.68;;
15799;SDS011;8002;51.196;7.010;2024-03-08T11:34:14;10.63;;;9.63;;
15799;SDS011;8002;51.196;7.010;2024-03-08T11:36:41;9.85;;;8.85;;
15799;SDS011;8002;51.196;7.010;2024-03-08T11:39:09;10.20;;;9.30;;
15799;SDS011;8002;51.196;7.010;2024-03-08T11:41:39;9.07;;;8.30;;
15799;SDS011;8002;51.196;7.010;2024-03-08T11:44:07;11.60;;;8.77;;
15799;SDS011;8002;51.196;7.010;2024-03-08T11:46:35;9.35;;;8.45;;
15799;SDS011;8002;51.196;7.010;2024-03-08T11:49:03;9.60;;;8.63;;
15799;SDS011;8002;51.196;7.010;2024-03-08T11:51:30;8.70;;;7.93;;
15799;SDS011;8002;51.196;7.010;2024-03-08T11:53:57;8.50;;;7.68;;
15799;SDS011;8002;51.196;7.010;2024-03-08T11:56:25;7.85;;;7.20;;
15799;SDS011;8002;51.196;7.010;2024-03-08T11:58:52;10.07;;;9.18;;
15799;SDS011;8002;51.196;7.010;2024-03-08T12:01:19;8.65;;;7.85;;
15799;SDS011;8002;51.196;7.010;2024-03-08T12:03:45;9.32;;;8.43;;
15799;SDS011;8002;51.196;7.010;2024-03-08T12:06:18;10.30;;;9.50;;
15799;SDS011;8002;51.196;7.010;2024-03-08T12:08:45;9.73;;;8.93;;
15799;SDS011;8002;51.196;7.010;2024-03-08T12:11:14;10.10;;;9.10;;
15799;SDS011;8002;51.196;7.010;2024-03-08T12:13:42;9.88;;;9.07;;
15799;SDS011;8002;51.196;7.010;2024-03-08T12:16:11;9.85;;;8.88;;
15799;SDS011;8002;51.196;7.010;2024-03-08T12:18:38;8.57;;;7.78;;
15799;SDS011;8002;51.196;7.010;2024-03-08T12:21:04;9.05;;;8.05;;
15799;SDS011;8002;51.196;7.010;2024-03-08T12:23:32;9.20;;;8.50;;
15799;SDS011;8002;51.196;7.010;2024-03-08T12:26:08;9.90;;;9.10;;
15799;SDS011;8002;51.196;7.010;2024-03-08T12:28:38;9.32;;;8.52;;
15799;SDS011;8002;51.196;7.010;2024-03-08T12:31:07;8.68;;;7.88;;
15799;SDS011;8002;51.196;7.010;2024-03-08T12:33:35;9.30;;;8.40;;
15799;SDS011;8002;51.196;7.010;2024-03-08T12:36:01;7.85;;;7.15;;
15799;SDS011;8002;51.196;7.010;2024-03-08T12:38:32;8.77;;;7.97;;
15799;SDS011;8002;51.196;7.010;2024-03-08T12:41:00;8.40;;;7.70;;
15799;SDS011;8002;51.196;7.010;2024-03-08T12:43:27;8.18;;;7.47;;
15799;SDS011;8002;51.196;7.010;2024-03-08T12:45:55;8.60;;;7.80;;
15799;SDS011;8002;51.196;7.010;2024-03-08T12:48:22;7.35;;;6.75;;
15799;SDS011;8002;51.196;7.010;2024-03-08T12:50:49;7.22;;;6.63;;
15799;SDS011;8002;51.196;7.010;2024-03-08T12:53:17;8.40;;;7.63;;
15799;SDS011;8002;51.196;7.010;2024-03-08T12:55:43;9.00;;;8.20;;
15799;SDS011;8002;51.196;7.010;2024-03-08T12:58:10;8.30;;;7.43;;
15799;SDS011;8002;51.196;7.010;2024-03-08T13:00:36;8.65;;;7.85;;
15799;SDS011;8002;51.196;7.010;2024-03-08T13:03:05;8.15;;;7.47;;
15799;SDS011;8002;51.196;7.010;2024-03-08T13:05:33;8.95;;;8.15;;
15799;SDS011;8002;51.196;7.010;2024-03-08T13:08:02;8.70;;;7.90;;
15799;SDS011;8002;51.196;7.010;2024-03-08T13:10:29;8.57;;;7.80;;
15799;SDS011;8002;51.196;7.010;2024-03-08T13:12:55;7.65;;;6.95;;
15799;SDS011;8002;51.196;7.010;2024-03-08T13:15:21;8.48;;;7.70;;
15799;SDS011;8002;51.196;7.010;2024-03-08T13:17:48;8.60;;;7.80;;
15799;SDS011;8002;51.196;7.010;2024-03-08T13:20:15;7.80;;;7.20;;
15799;SDS011;8002;51.196;7.010;2024-03-08T13:22:45;8.25;;;7.38;;
15799;SDS011;8002;51.196;7.010;2024-03-08T13:25:11;8.88;;;7.97;;
15799;SDS011;8002;51.196;7.010;2024-03-08T13:27:38;9.90;;;9.00;;
15799;SDS011;8002;51.196;7.010;2024-03-08T13:30:06;10.40;;;9.40;;
15799;SDS011;8002;51.196;7.010;2024-03-08T13:32:36;9.25;;;8.35;;
15799;SDS011;8002;51.196;7.010;2024-03-08T13:35:04;8.70;;;8.00;;
15799;SDS011;8002;51.196;7.010;2024-03-08T13:37:37;8.95;;;8.15;;
15799;SDS011;8002;51.196;7.010;2024-03-08T13:40:06;9.57;;;8.77;;
15799;SDS011;8002;51.196;7.010;2024-03-08T13:42:35;9.20;;;8.38;;
15799;SDS011;8002;51.196;7.010;2024-03-08T13:45:03;9.68;;;8.77;;
15799;SDS011;8002;51.196;7.010;2024-03-08T13:47:30;8.48;;;7.78;;
15799;SDS011;8002;51.196;7.010;2024-03-08T13:49:57;8.73;;;8.00;;
15799;SDS011;8002;51.196;7.010;2024-03-08T13:52:23;9.68;;;8.70;;
15799;SDS011;8002;51.196;7.010;2024-03-08T13:54:50;10.00;;;9.02;;
15799;SDS011;8002;51.196;7.010;2024-03-08T13:57:18;9.77;;;8.88;;
15799;SDS011;8002;51.196;7.010;2024-03-08T13:59:44;9.40;;;8.60;;
15799;SDS011;8002;51.196;7.010;2024-03-08T14:02:11;9.90;;;8.85;;
15799;SDS011;8002;51.196;7.010;2024-03-08T14:04:38;9.85;;;8.95;;
15799;SDS011;8002;51.196;7.010;2024-03-08T14:07:06;9.95;;;8.95;;
15799;SDS011;8002;51.196;7.010;2024-03-08T14:09:33;9.25;;;8.35;;
15799;SDS011;8002;51.196;7.010;2024-03-08T14:12:02;11.63;;;9.68;;
15799;SDS011;8002;51.196;7.010;2024-03-08T14:14:33;10.90;;;9.80;;
15799;SDS011;8002;51.196;7.010;2024-03-08T14:17:00;11.48;;;9.75;;
15799;SDS011;8002;51.196;7.010;2024-03-08T14:19:26;11.10;;;10.00;;
15799;SDS011;8002;51.196;7.010;2024-03-08T14:21:53;11.27;;;10.13;;
15799;SDS011;8002;51.196;7.010;2024-03-08T14:24:19;10.48;;;9.05;;
15799;SDS011;8002;51.196;7.010;2024-03-08T14:26:46;10.38;;;9.32;;
15799;SDS011;8002;51.196;7.010;2024-03-08T14:29:13;12.10;;;10.20;;
15799;SDS011;8002;51.196;7.010;2024-03-08T14:31:41;11.20;;;9.48;;
15799;SDS011;8002;51.196;7.010;2024-03-08T14:34:08;9.93;;;8.93;;
15799;SDS011;8002;51.196;7.010;2024-03-08T14:36:34;9.93;;;8.90;;
15799;SDS011;8002;51.196;7.010;2024-03-08T14:39:00;10.27;;;8.40;;
15799;SDS011;8002;51.196;7.010;2024-03-08T14:41:27;10.57;;;8.37;;
15799;SDS011;8002;51.196;7.010;2024-03-08T14:43:53;10.30;;;8.50;;
15799;SDS011;8002;51.196;7.010;2024-03-08T14:46:20;10.37;;;8.60;;